sensor_id;sensor_type;location;lat;lon;timestamp;pressure;altitude;pressure_sealevel;temperature;humidity
8318;BME280;4196;48.926;8.964;2022-08-25T00:00:11;99081.34;;;17.50;100.00
8318;BME280;4196;48.926;8.964;2022-08-25T00:02:57;99084.09;;;17.46;100.00
8318;BME280;4196;48.926;8.964;2022-08-25T00:05:44;99080.00;;;17.37;100.00
8318;BME280;4196;48.926;8.964;2022-08-25T00:08:30;99094.69;;;17.41;100.00
8318;BME280;4196;48.926;8.964;2022-08-25T00:11:20;99080.19;;;17.31;100.00
8318;BME280;4196;48.926;8.964;2022-08-25T00:14:11;99069.13;;;17.21;100.00
8318;BME280;4196;48.926;8.964;2022-08-25T00:16:59;99055.53;;;17.08;100.00
8318;BME280;4196;48.926;8.964;2022-08-25T00:19:46;99059.97;;;17.06;100.00
8318;BME280;4196;48.926;8.964;2022-08-25T00:22:32;99077.97;;;17.17;100.00
8318;BME280;4196;48.926;8.964;2022-08-25T00:25:20;99083.97;;;17.21;100.00
8318;BME280;4196;48.926;8.964;2022-08-25T00:28:07;99056.53;;;17.04;100.00
8318;BME280;4196;48.926;8.964;2022-08-25T00:30:54;99049.97;;;16.89;100.00
8318;BME280;4196;48.926;8.964;2022-08-25T00:33:41;99057.81;;;16.89;100.00
8318;BME280;4196;48.926;8.964;2022-08-25T00:36:28;99065.59;;;16.93;100.00
8318;BME280;4196;48.926;8.964;2022-08-25T00:39:14;99081.13;;;16.97;100.00
8318;BME280;4196;48.926;8.964;2022-08-25T00:42:02;99082.19;;;16.92;100.00
8318;BME280;4196;48.926;8.964;2022-08-25T00:44:52;99085.66;;;16.92;100.00
8318;BME280;4196;48.926;8.964;2022-08-25T00:47:40;99095.13;;;16.96;100.00
8318;BME280;4196;48.926;8.964;2022-08-25T00:50:28;99064.34;;;16.75;100.00
8318;BME280;4196;48.926;8.964;2022-08-25T00:53:15;99093.50;;;16.92;100.00
8318;BME280;4196;48.926;8.964;2022-08-25T00:56:01;99103.97;;;16.92;100.00
8318;BME280;4196;48.926;8.964;2022-08-25T00:58:49;99105.84;;;16.87;100.00
8318;BME280;4196;48.926;8.964;2022-08-25T01:01:36;99062.09;;;16.61;100.00
8318;BME280;4196;48.926;8.964;2022-08-25T01:04:22;99073.56;;;16.55;100.00
8318;BME280;4196;48.926;8.964;2022-08-25T01:07:08;99083.84;;;16.61;100.00
8318;BME280;4196;48.926;8.964;2022-08-25T01:10:04;99097.81;;;16.60;100.00
8318;BME280;4196;48.926;8.964;2022-08-25T01:12:55;99067.09;;;16.36;100.00
8318;BME280;4196;48.926;8.964;2022-08-25T01:15:44;99060.25;;;16.32;100.00
8318;BME280;4196;48.926;8.964;2022-08-25T01:18:44;99091.28;;;16.44;100.00
8318;BME280;4196;48.926;8.964;2022-08-25T01:21:38;99074.34;;;16.25;100.00
8318;BME280;4196;48.926;8.964;2022-08-25T01:24:34;99093.22;;;16.36;100.00
8318;BME280;4196;48.926;8.964;2022-08-25T01:27:22;99077.78;;;16.27;100.00
8318;BME280;4196;48.926;8.964;2022-08-25T01:30:09;99057.25;;;16.11;100.00
8318;BME280;4196;48.926;8.964;2022-08-25T01:32:55;99066.81;;;16.12;100.00
8318;BME280;4196;48.926;8.964;2022-08-25T01:35:42;99054.97;;;15.99;100.00
8318;BME280;4196;48.926;8.964;2022-08-25T01:38:29;99077.44;;;16.05;100.00
8318;BME280;4196;48.926;8.964;2022-08-25T01:41:44;99080.03;;;16.06;100.00
8318;BME280;4196;48.926;8.964;2022-08-25T01:44:40;99096.50;;;16.10;100.00
8318;BME280;4196;48.926;8.964;2022-08-25T01:47:26;99081.94;;;16.00;100.00
8318;BME280;4196;48.926;8.964;2022-08-25T01:50:12;99061.38;;;15.86;100.00
8318;BME280;4196;48.926;8.964;2022-08-25T01:55:49;99085.53;;;15.94;100.00
8318;BME280;4196;48.926;8.964;2022-08-25T01:58:44;99070.16;;;15.83;100.00
8318;BME280;4196;48.926;8.964;2022-08-25T02:01:31;99079.63;;;15.87;100.00
8318;BME280;4196;48.926;8.964;2022-08-25T02:04:17;99090.94;;;15.88;100.00
8318;BME280;4196;48.926;8.964;2022-08-25T02:07:07;99113.31;;;15.98;100.00
8318;BME280;4196;48.926;8.964;2022-08-25T02:09:54;99103.00;;;15.92;100.00
8318;BME280;4196;48.926;8.964;2022-08-25T02:12:44;99061.94;;;15.61;100.00
8318;BME280;4196;48.926;8.964;2022-08-25T02:15:30;99082.63;;;15.70;100.00
8318;BME280;4196;48.926;8.964;2022-08-25T02:18:19;99110.06;;;15.87;100.00
8318;BME280;4196;48.926;8.964;2022-08-25T02:21:05;99088.75;;;15.68;100.00
8318;BME280;4196;48.926;8.964;2022-08-25T02:23:52;99075.78;;;15.65;100.00
8318;BME280;4196;48.926;8.964;2022-08-25T02:26:39;99105.09;;;15.78;100.00
8318;BME280;4196;48.926;8.964;2022-08-25T02:29:26;99099.28;;;15.65;100.00
8318;BME280;4196;48.926;8.964;2022-08-25T02:32:12;99075.13;;;15.54;100.00
8318;BME280;4196;48.926;8.964;2022-08-25T02:34:59;99069.22;;;15.47;100.00
8318;BME280;4196;48.926;8.964;2022-08-25T02:37:45;99081.13;;;15.57;100.00
8318;BME280;4196;48.926;8.964;2022-08-25T02:40:31;99083.94;;;15.50;100.00
8318;BME280;4196;48.926;8.964;2022-08-25T02:43:18;99098.59;;;15.55;100.00
8318;BME280;4196;48.926;8.964;2022-08-25T02:46:04;99060.91;;;15.30;100.00
8318;BME280;4196;48.926;8.964;2022-08-25T02:48:52;99072.94;;;15.35;100.00
8318;BME280;4196;48.926;8.964;2022-08-25T02:51:38;99064.34;;;15.32;100.00
8318;BME280;4196;48.926;8.964;2022-08-25T02:54:26;99054.94;;;15.23;100.00
8318;BME280;4196;48.926;8.964;2022-08-25T02:57:12;99084.19;;;15.37;100.00
8318;BME280;4196;48.926;8.964;2022-08-25T02:59:59;99087.78;;;15.33;100.00
8318;BME280;4196;48.926;8.964;2022-08-25T03:02:46;99099.91;;;15.34;100.00
8318;BME280;4196;48.926;8.964;2022-08-25T03:05:32;99079.38;;;15.19;100.00
8318;BME280;4196;48.926;8.964;2022-08-25T03:08:19;99082.84;;;15.19;100.00
8318;BME280;4196;48.926;8.964;2022-08-25T03:11:06;99053.69;;;15.01;100.00
8318;BME280;4196;48.926;8.964;2022-08-25T03:13:53;99063.09;;;15.08;100.00
8318;BME280;4196;48.926;8.964;2022-08-25T03:16:40;99060.59;;;15.03;100.00
8318;BME280;4196;48.926;8.964;2022-08-25T03:19:31;99070.97;;;15.05;100.00
8318;BME280;4196;48.926;8.964;2022-08-25T03:22:17;99076.19;;;15.05;100.00
8318;BME280;4196;48.926;8.964;2022-08-25T03:25:04;99074.44;;;15.05;100.00
8318;BME280;4196;48.926;8.964;2022-08-25T03:28:09;99065.03;;;14.98;100.00
8318;BME280;4196;48.926;8.964;2022-08-25T03:30:56;99084.94;;;15.02;100.00
8318;BME280;4196;48.926;8.964;2022-08-25T03:33:42;99080.63;;;15.01;100.00
8318;BME280;4196;48.926;8.964;2022-08-25T03:36:29;99079.81;;;14.99;100.00
8318;BME280;4196;48.926;8.964;2022-08-25T03:39:18;99056.56;;;14.88;100.00
8318;BME280;4196;48.926;8.964;2022-08-25T03:42:04;99055.72;;;14.86;100.00
8318;BME280;4196;48.926;8.964;2022-08-25T03:44:51;99081.41;;;15.05;100.00
8318;BME280;4196;48.926;8.964;2022-08-25T03:47:38;99054.78;;;14.89;100.00
8318;BME280;4196;48.926;8.964;2022-08-25T03:50:25;99083.31;;;14.96;100.00
8318;BME280;4196;48.926;8.964;2022-08-25T03:53:11;99043.72;;;14.78;100.00
8318;BME280;4196;48.926;8.964;2022-08-25T03:55:58;99041.34;;;14.65;100.00
8318;BME280;4196;48.926;8.964;2022-08-25T03:58:44;99058.63;;;14.71;100.00
8318;BME280;4196;48.926;8.964;2022-08-25T04:01:31;99076.75;;;14.77;100.00
8318;BME280;4196;48.926;8.964;2022-08-25T04:04:18;99044.94;;;14.60;100.00
8318;BME280;4196;48.926;8.964;2022-08-25T04:07:05;99001.06;;;14.37;100.00
8318;BME280;4196;48.926;8.964;2022-08-25T04:09:53;99026.16;;;14.41;100.00
8318;BME280;4196;48.926;8.964;2022-08-25T04:12:41;99046.78;;;14.53;100.00
8318;BME280;4196;48.926;8.964;2022-08-25T04:15:27;99053.66;;;14.57;100.00
8318;BME280;4196;48.926;8.964;2022-08-25T04:18:15;99067.47;;;14.62;100.00
8318;BME280;4196;48.926;8.964;2022-08-25T04:21:04;99081.28;;;14.67;100.00
8318;BME280;4196;48.926;8.964;2022-08-25T04:23:53;99023.69;;;14.33;100.00
8318;BME280;4196;48.926;8.964;2022-08-25T04:26:45;99078.72;;;14.66;100.00
8318;BME280;4196;48.926;8.964;2022-08-25T04:29:33;99059.03;;;14.48;100.00
8318;BME280;4196;48.926;8.964;2022-08-25T04:32:19;99071.94;;;14.56;100.00
8318;BME280;4196;48.926;8.964;2022-08-25T04:35:06;99061.75;;;14.42;100.00
8318;BME280;4196;48.926;8.964;2022-08-25T04:37:53;99057.38;;;14.44;100.00
8318;BME280;4196;48.926;8.964;2022-08-25T04:40:39;99067.72;;;14.47;100.00
8318;BME280;4196;48.926;8.964;2022-08-25T04:43:26;99079.78;;;14.54;100.00
8318;BME280;4196;48.926;8.964;2022-08-25T04:46:19;99072.81;;;14.56;100.00
8318;BME280;4196;48.926;8.964;2022-08-25T04:49:06;99049.56;;;14.42;100.00
8318;BME280;4196;48.926;8.964;2022-08-25T04:51:53;99052.16;;;14.44;100.00
8318;BME280;4196;48.926;8.964;2022-08-25T04:54:41;99083.16;;;14.59;100.00
8318;BME280;4196;48.926;8.964;2022-08-25T04:57:28;99053.81;;;14.48;100.00
8318;BME280;4196;48.926;8.964;2022-08-25T05:00:15;99076.97;;;14.66;100.00
8318;BME280;4196;48.926;8.964;2022-08-25T05:03:03;99088.03;;;14.78;100.00
8318;BME280;4196;48.926;8.964;2022-08-25T05:05:51;99091.34;;;14.86;100.00
8318;BME280;4196;48.926;8.964;2022-08-25T05:08:37;99069.78;;;14.78;100.00
8318;BME280;4196;48.926;8.964;2022-08-25T05:11:25;99087.47;;;15.05;100.00
8318;BME280;4196;48.926;8.964;2022-08-25T05:14:13;99057.03;;;15.06;100.00
8318;BME280;4196;48.926;8.964;2022-08-25T05:17:04;99019.28;;;15.23;100.00
8318;BME280;4196;48.926;8.964;2022-08-25T05:19:50;99050.00;;;15.88;100.00
8318;BME280;4196;48.926;8.964;2022-08-25T05:22:37;98998.41;;;15.98;100.00
8318;BME280;4196;48.926;8.964;2022-08-25T05:25:23;99041.53;;;16.47;100.00
8318;BME280;4196;48.926;8.964;2022-08-25T05:28:10;99063.25;;;16.82;100.00
8318;BME280;4196;48.926;8.964;2022-08-25T05:30:59;99062.28;;;16.86;100.00
8318;BME280;4196;48.926;8.964;2022-08-25T05:33:46;99068.97;;;16.96;100.00
8318;BME280;4196;48.926;8.964;2022-08-25T05:36:33;99038.88;;;16.81;100.00
8318;BME280;4196;48.926;8.964;2022-08-25T05:39:19;99037.78;;;16.90;100.00
8318;BME280;4196;48.926;8.964;2022-08-25T05:42:06;99028.34;;;16.84;100.00
8318;BME280;4196;48.926;8.964;2022-08-25T05:44:52;99052.28;;;17.00;100.00
8318;BME280;4196;48.926;8.964;2022-08-25T05:47:39;98999.97;;;16.69;100.00
8318;BME280;4196;48.926;8.964;2022-08-25T05:50:25;99042.81;;;16.96;100.00
8318;BME280;4196;48.926;8.964;2022-08-25T05:53:12;99053.03;;;17.05;100.00
8318;BME280;4196;48.926;8.964;2022-08-25T05:55:59;99001.50;;;16.78;100.00
8318;BME280;4196;48.926;8.964;2022-08-25T05:58:45;99007.34;;;16.87;100.00
8318;BME280;4196;48.926;8.964;2022-08-25T06:01:32;99047.50;;;17.14;100.00
8318;BME280;4196;48.926;8.964;2022-08-25T06:04:37;99037.19;;;17.10;100.00
8318;BME280;4196;48.926;8.964;2022-08-25T06:07:26;99055.34;;;17.44;100.00
8318;BME280;4196;48.926;8.964;2022-08-25T06:10:13;99029.06;;;17.47;100.00
8318;BME280;4196;48.926;8.964;2022-08-25T06:13:00;99071.38;;;17.91;100.00
8318;BME280;4196;48.926;8.964;2022-08-25T06:15:46;99038.84;;;17.97;100.00
8318;BME280;4196;48.926;8.964;2022-08-25T06:18:33;99014.63;;;18.17;99.84
8318;BME280;4196;48.926;8.964;2022-08-25T06:21:19;99017.94;;;18.47;96.74
8318;BME280;4196;48.926;8.964;2022-08-25T06:24:07;99031.84;;;18.74;94.85
8318;BME280;4196;48.926;8.964;2022-08-25T06:27:00;99024.31;;;18.88;92.45
8318;BME280;4196;48.926;8.964;2022-08-25T06:29:46;99063.47;;;19.18;93.90
8318;BME280;4196;48.926;8.964;2022-08-25T06:32:37;99070.91;;;19.30;91.75
8318;BME280;4196;48.926;8.964;2022-08-25T06:35:24;99059.28;;;19.36;92.36
8318;BME280;4196;48.926;8.964;2022-08-25T06:38:10;99045.22;;;19.60;90.25
8318;BME280;4196;48.926;8.964;2022-08-25T06:40:57;99024.25;;;19.59;90.50
8318;BME280;4196;48.926;8.964;2022-08-25T06:43:43;99057.53;;;19.82;90.86
8318;BME280;4196;48.926;8.964;2022-08-25T06:46:34;99060.03;;;19.85;88.68
8318;BME280;4196;48.926;8.964;2022-08-25T06:49:22;99059.34;;;20.01;89.13
8318;BME280;4196;48.926;8.964;2022-08-25T06:52:13;99059.88;;;20.10;88.95
8318;BME280;4196;48.926;8.964;2022-08-25T06:55:00;99042.63;;;20.02;88.68
8318;BME280;4196;48.926;8.964;2022-08-25T06:57:47;99036.16;;;20.11;88.47
8318;BME280;4196;48.926;8.964;2022-08-25T07:00:34;99032.91;;;20.25;86.77
8318;BME280;4196;48.926;8.964;2022-08-25T07:03:21;99035.78;;;20.41;87.26
8318;BME280;4196;48.926;8.964;2022-08-25T07:06:07;99014.66;;;20.42;87.92
8318;BME280;4196;48.926;8.964;2022-08-25T07:08:54;99031.25;;;20.65;89.55
8318;BME280;4196;48.926;8.964;2022-08-25T07:11:41;99037.69;;;20.78;90.82
8318;BME280;4196;48.926;8.964;2022-08-25T07:14:28;99008.72;;;20.78;90.25
8318;BME280;4196;48.926;8.964;2022-08-25T07:17:14;99006.56;;;21.07;85.00
8318;BME280;4196;48.926;8.964;2022-08-25T07:20:01;99023.06;;;21.29;81.71
8318;BME280;4196;48.926;8.964;2022-08-25T07:22:47;99006.91;;;21.37;84.08
8318;BME280;4196;48.926;8.964;2022-08-25T07:25:34;99002.97;;;21.45;81.25
8318;BME280;4196;48.926;8.964;2022-08-25T07:28:21;99013.09;;;21.55;79.95
8318;BME280;4196;48.926;8.964;2022-08-25T07:31:10;99009.38;;;21.59;81.31
8318;BME280;4196;48.926;8.964;2022-08-25T07:33:58;99011.41;;;21.71;80.41
8318;BME280;4196;48.926;8.964;2022-08-25T07:37:03;99013.28;;;21.69;78.49
8318;BME280;4196;48.926;8.964;2022-08-25T07:39:50;99017.19;;;21.97;77.54
8318;BME280;4196;48.926;8.964;2022-08-25T07:42:36;99018.72;;;22.01;78.53
8318;BME280;4196;48.926;8.964;2022-08-25T07:45:26;99025.34;;;22.09;78.39
8318;BME280;4196;48.926;8.964;2022-08-25T07:48:16;98988.97;;;21.99;78.25
8318;BME280;4196;48.926;8.964;2022-08-25T07:51:11;99025.59;;;22.22;76.70
8318;BME280;4196;48.926;8.964;2022-08-25T07:53:59;99018.13;;;22.30;77.28
8318;BME280;4196;48.926;8.964;2022-08-25T07:56:47;99022.16;;;22.37;76.80
8318;BME280;4196;48.926;8.964;2022-08-25T07:59:33;99001.84;;;22.39;76.76
8318;BME280;4196;48.926;8.964;2022-08-25T08:02:25;99017.03;;;22.52;77.18
8318;BME280;4196;48.926;8.964;2022-08-25T08:05:13;98971.09;;;22.38;75.87
8318;BME280;4196;48.926;8.964;2022-08-25T08:07:59;98996.34;;;22.77;74.12
8318;BME280;4196;48.926;8.964;2022-08-25T08:10:48;99006.47;;;22.85;72.89
8318;BME280;4196;48.926;8.964;2022-08-25T08:13:52;99008.56;;;22.96;74.47
8318;BME280;4196;48.926;8.964;2022-08-25T08:16:39;98990.00;;;22.97;74.23
8318;BME280;4196;48.926;8.964;2022-08-25T08:19:27;98993.00;;;23.23;71.28
8318;BME280;4196;48.926;8.964;2022-08-25T08:22:13;98991.97;;;23.25;70.55
8318;BME280;4196;48.926;8.964;2022-08-25T08:25:02;98996.06;;;23.47;69.10
8318;BME280;4196;48.926;8.964;2022-08-25T08:27:50;99011.06;;;23.62;68.65
8318;BME280;4196;48.926;8.964;2022-08-25T08:30:40;98989.50;;;23.70;69.40
8318;BME280;4196;48.926;8.964;2022-08-25T08:33:38;99016.31;;;23.94;67.93
8318;BME280;4196;48.926;8.964;2022-08-25T08:36:26;99011.72;;;23.97;69.19
8318;BME280;4196;48.926;8.964;2022-08-25T08:39:15;98989.28;;;23.89;68.56
8318;BME280;4196;48.926;8.964;2022-08-25T08:45:24;98987.69;;;24.30;65.32
8318;BME280;4196;48.926;8.964;2022-08-25T08:51:22;98994.25;;;24.39;66.26
8318;BME280;4196;48.926;8.964;2022-08-25T08:54:22;98993.59;;;24.50;63.87
8318;BME280;4196;48.926;8.964;2022-08-25T08:57:15;98980.09;;;24.54;64.53
8318;BME280;4196;48.926;8.964;2022-08-25T09:00:04;98942.53;;;24.48;64.50
8318;BME280;4196;48.926;8.964;2022-08-25T09:02:58;98979.44;;;24.79;64.52
8318;BME280;4196;48.926;8.964;2022-08-25T09:05:52;98973.94;;;24.82;63.10
8318;BME280;4196;48.926;8.964;2022-08-25T09:08:41;98981.09;;;25.09;61.80
8318;BME280;4196;48.926;8.964;2022-08-25T09:17:47;98996.78;;;25.41;58.49
8318;BME280;4196;48.926;8.964;2022-08-25T09:24:22;98959.75;;;25.12;59.30
8318;BME280;4196;48.926;8.964;2022-08-25T09:30:18;98982.81;;;25.51;58.62
8318;BME280;4196;48.926;8.964;2022-08-25T09:33:05;98959.56;;;25.42;59.33
8318;BME280;4196;48.926;8.964;2022-08-25T09:35:54;98950.13;;;25.51;57.75
8318;BME280;4196;48.926;8.964;2022-08-25T09:38:43;98947.44;;;25.65;56.77
8318;BME280;4196;48.926;8.964;2022-08-25T09:41:52;98963.84;;;25.85;55.97
8318;BME280;4196;48.926;8.964;2022-08-25T09:44:43;98964.19;;;25.93;55.91
8318;BME280;4196;48.926;8.964;2022-08-25T09:47:30;98951.97;;;25.90;56.29
8318;BME280;4196;48.926;8.964;2022-08-25T09:50:18;98949.84;;;25.95;55.11
8318;BME280;4196;48.926;8.964;2022-08-25T09:53:12;98960.59;;;26.07;54.72
8318;BME280;4196;48.926;8.964;2022-08-25T09:56:04;98962.75;;;26.14;54.34
8318;BME280;4196;48.926;8.964;2022-08-25T09:58:54;98930.63;;;25.92;54.63
8318;BME280;4196;48.926;8.964;2022-08-25T10:04:38;98938.22;;;26.23;54.83
8318;BME280;4196;48.926;8.964;2022-08-25T10:07:36;98953.53;;;26.58;53.90
8318;BME280;4196;48.926;8.964;2022-08-25T10:10:30;98939.59;;;26.67;53.29
8318;BME280;4196;48.926;8.964;2022-08-25T10:13:19;98952.00;;;26.80;52.27
8318;BME280;4196;48.926;8.964;2022-08-25T10:16:10;98936.28;;;26.89;52.21
8318;BME280;4196;48.926;8.964;2022-08-25T10:22:19;98929.50;;;26.72;51.45
8318;BME280;4196;48.926;8.964;2022-08-25T10:25:09;98929.94;;;26.66;51.70
8318;BME280;4196;48.926;8.964;2022-08-25T10:28:20;98923.00;;;26.77;50.57
8318;BME280;4196;48.926;8.964;2022-08-25T10:31:17;98918.03;;;26.72;50.88
8318;BME280;4196;48.926;8.964;2022-08-25T10:34:16;98919.69;;;26.86;51.76
8318;BME280;4196;48.926;8.964;2022-08-25T10:40:27;98885.66;;;26.91;50.32
8318;BME280;4196;48.926;8.964;2022-08-25T10:46:41;98907.16;;;27.25;49.42
8318;BME280;4196;48.926;8.964;2022-08-25T10:49:47;98889.22;;;27.03;48.60
8318;BME280;4196;48.926;8.964;2022-08-25T10:55:47;98841.25;;;26.93;50.13
8318;BME280;4196;48.926;8.964;2022-08-25T11:04:43;98851.66;;;27.44;48.99
8318;BME280;4196;48.926;8.964;2022-08-25T11:07:35;98843.91;;;27.41;48.01
8318;BME280;4196;48.926;8.964;2022-08-25T11:14:02;98855.13;;;27.33;49.13
8318;BME280;4196;48.926;8.964;2022-08-25T11:19:51;98818.47;;;27.26;48.55
8318;BME280;4196;48.926;8.964;2022-08-25T11:22:49;98854.00;;;27.71;49.95
8318;BME280;4196;48.926;8.964;2022-08-25T11:25:43;98852.50;;;27.91;48.91
8318;BME280;4196;48.926;8.964;2022-08-25T11:28:51;98853.25;;;27.93;46.30
8318;BME280;4196;48.926;8.964;2022-08-25T11:31:42;98815.00;;;27.83;44.76
8318;BME280;4196;48.926;8.964;2022-08-25T11:34:34;98830.66;;;28.10;44.47
8318;BME280;4196;48.926;8.964;2022-08-25T11:37:29;98846.25;;;28.26;44.48
8318;BME280;4196;48.926;8.964;2022-08-25T11:47:32;98805.94;;;28.96;44.35
8318;BME280;4196;48.926;8.964;2022-08-25T11:53:21;98839.53;;;29.63;41.70
8318;BME280;4196;48.926;8.964;2022-08-25T11:56:33;98842.72;;;29.78;41.33
8318;BME280;4196;48.926;8.964;2022-08-25T12:02:48;98841.16;;;29.75;38.53
8318;BME280;4196;48.926;8.964;2022-08-25T12:09:14;98831.16;;;29.56;39.52
8318;BME280;4196;48.926;8.964;2022-08-25T12:12:26;98831.47;;;29.21;40.54
8318;BME280;4196;48.926;8.964;2022-08-25T12:21:32;98821.78;;;28.77;42.23
8318;BME280;4196;48.926;8.964;2022-08-25T12:24:21;98811.75;;;28.58;42.83
8318;BME280;4196;48.926;8.964;2022-08-25T12:30:26;98814.06;;;28.29;42.20
8318;BME280;4196;48.926;8.964;2022-08-25T12:33:41;98801.75;;;28.39;41.91
8318;BME280;4196;48.926;8.964;2022-08-25T12:36:32;98794.31;;;28.65;41.93
8318;BME280;4196;48.926;8.964;2022-08-25T12:39:22;98789.97;;;28.96;42.38
8318;BME280;4196;48.926;8.964;2022-08-25T12:42:28;98764.00;;;29.09;40.60
8318;BME280;4196;48.926;8.964;2022-08-25T12:51:17;98787.50;;;30.40;39.73
8318;BME280;4196;48.926;8.964;2022-08-25T12:57:45;98788.19;;;30.32;38.27
8318;BME280;4196;48.926;8.964;2022-08-25T13:07:18;98772.19;;;30.01;39.11
8318;BME280;4196;48.926;8.964;2022-08-25T13:13:19;98785.13;;;30.06;38.58
8318;BME280;4196;48.926;8.964;2022-08-25T13:16:30;98785.31;;;29.93;39.18
8318;BME280;4196;48.926;8.964;2022-08-25T13:19:18;98738.00;;;29.95;38.81
8318;BME280;4196;48.926;8.964;2022-08-25T13:22:13;98775.41;;;30.36;39.10
8318;BME280;4196;48.926;8.964;2022-08-25T13:25:02;98761.78;;;30.48;36.26
8318;BME280;4196;48.926;8.964;2022-08-25T13:27:54;98766.84;;;30.42;36.79
8318;BME280;4196;48.926;8.964;2022-08-25T13:30:41;98746.75;;;30.47;38.75
8318;BME280;4196;48.926;8.964;2022-08-25T13:33:27;98764.22;;;30.71;36.04
8318;BME280;4196;48.926;8.964;2022-08-25T13:36:15;98756.53;;;30.87;36.10
8318;BME280;4196;48.926;8.964;2022-08-25T13:39:23;98740.06;;;30.92;35.60
8318;BME280;4196;48.926;8.964;2022-08-25T13:42:30;98756.13;;;31.01;36.23
8318;BME280;4196;48.926;8.964;2022-08-25T13:45:20;98760.75;;;31.19;37.66
8318;BME280;4196;48.926;8.964;2022-08-25T13:48:11;98732.44;;;31.07;37.04
8318;BME280;4196;48.926;8.964;2022-08-25T13:51:25;98745.66;;;31.18;36.09
8318;BME280;4196;48.926;8.964;2022-08-25T13:54:27;98731.91;;;30.93;36.24
8318;BME280;4196;48.926;8.964;2022-08-25T13:57:24;98735.25;;;31.15;37.26
8318;BME280;4196;48.926;8.964;2022-08-25T14:00:26;98723.81;;;31.51;35.00
8318;BME280;4196;48.926;8.964;2022-08-25T14:06:24;98735.63;;;32.06;35.53
8318;BME280;4196;48.926;8.964;2022-08-25T14:09:14;98728.88;;;32.02;34.68
8318;BME280;4196;48.926;8.964;2022-08-25T14:12:02;98722.75;;;31.82;34.69
8318;BME280;4196;48.926;8.964;2022-08-25T14:14:57;98716.28;;;31.74;35.79
8318;BME280;4196;48.926;8.964;2022-08-25T14:18:00;98724.38;;;31.92;35.58
8318;BME280;4196;48.926;8.964;2022-08-25T14:20:50;98724.00;;;31.87;34.77
8318;BME280;4196;48.926;8.964;2022-08-25T14:23:38;98702.94;;;31.55;35.91
8318;BME280;4196;48.926;8.964;2022-08-25T14:26:25;98724.53;;;31.54;35.76
8318;BME280;4196;48.926;8.964;2022-08-25T14:29:13;98704.69;;;31.27;35.65
8318;BME280;4196;48.926;8.964;2022-08-25T14:32:00;98688.53;;;30.99;35.67
8318;BME280;4196;48.926;8.964;2022-08-25T14:34:48;98685.88;;;30.61;36.39
8318;BME280;4196;48.926;8.964;2022-08-25T14:37:34;98695.13;;;30.47;35.57
8318;BME280;4196;48.926;8.964;2022-08-25T14:40:22;98691.31;;;30.40;36.39
8318;BME280;4196;48.926;8.964;2022-08-25T14:43:09;98673.72;;;30.18;38.47
8318;BME280;4196;48.926;8.964;2022-08-25T14:45:55;98698.06;;;30.34;37.53
8318;BME280;4196;48.926;8.964;2022-08-25T14:48:45;98700.44;;;30.37;36.59
8318;BME280;4196;48.926;8.964;2022-08-25T14:51:34;98658.06;;;30.03;37.86
8318;BME280;4196;48.926;8.964;2022-08-25T14:54:25;98692.16;;;30.40;36.88
8318;BME280;4196;48.926;8.964;2022-08-25T14:57:12;98646.84;;;30.19;35.95
8318;BME280;4196;48.926;8.964;2022-08-25T14:59:59;98652.03;;;30.01;36.94
8318;BME280;4196;48.926;8.964;2022-08-25T15:02:48;98666.75;;;29.96;38.68
8318;BME280;4196;48.926;8.964;2022-08-25T15:05:38;98669.56;;;29.94;37.34
8318;BME280;4196;48.926;8.964;2022-08-25T15:08:25;98643.94;;;29.82;37.27
8318;BME280;4196;48.926;8.964;2022-08-25T15:11:30;98675.88;;;29.93;39.29
8318;BME280;4196;48.926;8.964;2022-08-25T15:14:22;98677.13;;;29.89;38.89
8318;BME280;4196;48.926;8.964;2022-08-25T15:17:18;98667.16;;;29.91;37.91
8318;BME280;4196;48.926;8.964;2022-08-25T15:20:05;98652.78;;;29.73;38.26
8318;BME280;4196;48.926;8.964;2022-08-25T15:22:52;98663.97;;;29.97;39.29
8318;BME280;4196;48.926;8.964;2022-08-25T15:25:39;98670.41;;;30.04;38.89
8318;BME280;4196;48.926;8.964;2022-08-25T15:28:26;98656.63;;;29.99;38.33
8318;BME280;4196;48.926;8.964;2022-08-25T15:31:14;98667.19;;;30.11;38.62
8318;BME280;4196;48.926;8.964;2022-08-25T15:34:01;98644.00;;;30.01;37.84
8318;BME280;4196;48.926;8.964;2022-08-25T15:36:48;98644.84;;;30.12;36.99
8318;BME280;4196;48.926;8.964;2022-08-25T15:39:35;98645.75;;;30.22;34.97
8318;BME280;4196;48.926;8.964;2022-08-25T15:42:22;98612.22;;;30.08;35.44
8318;BME280;4196;48.926;8.964;2022-08-25T15:45:10;98633.31;;;30.11;36.20
8318;BME280;4196;48.926;8.964;2022-08-25T15:47:57;98641.66;;;30.18;36.74
8318;BME280;4196;48.926;8.964;2022-08-25T15:50:43;98641.25;;;30.22;38.13
8318;BME280;4196;48.926;8.964;2022-08-25T15:53:30;98602.13;;;30.02;37.16
8318;BME280;4196;48.926;8.964;2022-08-25T15:56:17;98648.28;;;30.33;37.65
8318;BME280;4196;48.926;8.964;2022-08-25T15:59:12;98648.00;;;30.36;37.31
8318;BME280;4196;48.926;8.964;2022-08-25T16:01:59;98622.72;;;30.30;36.16
8318;BME280;4196;48.926;8.964;2022-08-25T16:04:46;98644.94;;;30.50;35.93
8318;BME280;4196;48.926;8.964;2022-08-25T16:07:33;98647.59;;;30.41;35.45
8318;BME280;4196;48.926;8.964;2022-08-25T16:10:21;98634.78;;;30.25;36.96
8318;BME280;4196;48.926;8.964;2022-08-25T16:13:09;98646.34;;;30.35;35.53
8318;BME280;4196;48.926;8.964;2022-08-25T16:15:56;98618.84;;;29.94;36.66
8318;BME280;4196;48.926;8.964;2022-08-25T16:18:43;98621.47;;;29.84;36.63
8318;BME280;4196;48.926;8.964;2022-08-25T16:21:31;98643.66;;;29.75;38.03
8318;BME280;4196;48.926;8.964;2022-08-25T16:24:21;98620.47;;;29.45;38.53
8318;BME280;4196;48.926;8.964;2022-08-25T16:27:07;98636.56;;;29.34;39.04
8318;BME280;4196;48.926;8.964;2022-08-25T16:29:57;98643.81;;;29.22;39.42
8318;BME280;4196;48.926;8.964;2022-08-25T16:32:45;98643.03;;;29.10;38.86
8318;BME280;4196;48.926;8.964;2022-08-25T16:35:32;98590.78;;;28.98;37.26
8318;BME280;4196;48.926;8.964;2022-08-25T16:38:21;98640.31;;;29.22;38.16
8318;BME280;4196;48.926;8.964;2022-08-25T16:41:10;98635.44;;;29.06;38.83
8318;BME280;4196;48.926;8.964;2022-08-25T16:44:01;98635.75;;;29.12;38.03
8318;BME280;4196;48.926;8.964;2022-08-25T16:46:48;98620.28;;;29.06;38.01
8318;BME280;4196;48.926;8.964;2022-08-25T16:49:36;98608.94;;;28.93;38.07
8318;BME280;4196;48.926;8.964;2022-08-25T16:52:23;98569.78;;;28.63;38.45
8318;BME280;4196;48.926;8.964;2022-08-25T16:55:30;98606.09;;;28.85;38.00
8318;BME280;4196;48.926;8.964;2022-08-25T16:58:25;98611.81;;;28.80;37.82